Gällivare Airport

METAR ESNG TAF ESNG
-5 °C
°C
-
°C
18m
Age
11:07:32
LT
10:07
UTC
0 ft

1,000

2,000

3,000

4,000

5,000

FEW 2,000
VFR
<?= Yii::t('app', 'Wind direction') ?> <?= Yii::t('app', 'of'); ?>
310°
14:55
Sunset
86%
Humidity
Wind shear
Closed/Snow
RWY visual range
RWY condition
Vert. visibility
Min. visibility
CAVOK
Trend
Correction
Special report
990 hPa
QNH
METAR ESNG 010950Z 31006KT 9999 SHSN FEW020 M05/M07 Q0990
Showers snow
1 kt
1 kt
11:00
MVFR
5 kt
12:00
MVFR
5 kt
13:00
MVFR
5 kt
14:00
MVFR
5 kt
15:00
MVFR
5 kt
16:00
MVFR
5 kt
17:00
MVFR
5 kt
10 km+
Visibility
None
Ceiling
6 kt
Wind
metar-taf.com/ESNG

Metar-Taf.com

Visual decoder

We and third parties follow your internet behavior on our website with cookies. If you continue, we assume you agree with our cookie policy.